KTXK/TXK METAR and TAF weather

Enter ICAO airport designator
Station Type Date Time Source
KTXK METAR 2018/12/17 01:53 UTC NOAA

KTXK 170153Z 18006KT 10SM CLR 13/10 A3024 RMK AO2 SLP240 T01280100


Station Type Date Time Source
KTXK Decoded METAR 2018/12/17 01:53 UTC NOAA

TEXARKANA RGNL WEBB FIELD, AR, United States (KTXK) 33-27N 093-59W 111M
Dec 16, 2018 - 08:53 PM EST / 2018.12.17 0153 UTC
Wind: from the S (180 degrees) at 7 MPH (6 KT):0
Visibility: 10 mile(s):0
Sky conditions: clear
Temperature: 55.0 F (12.8 C)
Dew Point: 50.0 F (10.0 C)
Relative Humidity: 83%
Pressure (altimeter): 30.24 in. Hg (1024 hPa)
ob: KTXK 170153Z 18006KT 10SM CLR 13/10 A3024 RMK AO2 SLP240 T01280100
cycle: 2

Station Type Date Time Source
KTXK TAF 2018/12/16 18:30 UTC NOAA

TAF KTXK 161729Z 1618/1718 18005KT P6SM SCT180 BKN250
FM170000 VRB03KT P6SM BKN250
FM170800 00000KT 5SM BR BKN280
FM171000 00000KT 2SM BR SCT003 BKN280
FM171500 VRB03KT P6SM SCT007 BKN280


Example: see airport list